sensor_id;sensor_type;location;lat;lon;timestamp;P1;durP1;ratioP1;P2;durP2;ratioP2
43803;SDS011;29430;52.924;-2.388;2022-07-30T00:00:29;4.53;;;2.55;;
43803;SDS011;29430;52.924;-2.388;2022-07-30T00:05:21;5.90;;;2.75;;
43803;SDS011;29430;52.924;-2.388;2022-07-30T00:10:12;11.75;;;2.60;;
43803;SDS011;29430;52.924;-2.388;2022-07-30T00:15:04;4.53;;;2.65;;
43803;SDS011;29430;52.924;-2.388;2022-07-30T00:19:57;4.53;;;2.53;;
43803;SDS011;29430;52.924;-2.388;2022-07-30T00:24:49;5.97;;;2.25;;
43803;SDS011;29430;52.924;-2.388;2022-07-30T00:29:41;9.02;;;2.97;;
43803;SDS011;29430;52.924;-2.388;2022-07-30T00:34:35;4.05;;;2.28;;
43803;SDS011;29430;52.924;-2.388;2022-07-30T00:39:26;3.17;;;1.85;;
43803;SDS011;29430;52.924;-2.388;2022-07-30T00:44:20;3.60;;;1.83;;
43803;SDS011;29430;52.924;-2.388;2022-07-30T00:49:12;4.15;;;1.70;;
43803;SDS011;29430;52.924;-2.388;2022-07-30T00:54:04;5.28;;;1.65;;
43803;SDS011;29430;52.924;-2.388;2022-07-30T00:58:56;2.47;;;0.80;;
43803;SDS011;29430;52.924;-2.388;2022-07-30T01:03:48;1.85;;;0.70;;
43803;SDS011;29430;52.924;-2.388;2022-07-30T01:08:39;2.58;;;0.80;;
43803;SDS011;29430;52.924;-2.388;2022-07-30T01:13:33;3.25;;;1.00;;
43803;SDS011;29430;52.924;-2.388;2022-07-30T01:18:25;4.28;;;1.55;;
43803;SDS011;29430;52.924;-2.388;2022-07-30T01:23:41;3.70;;;0.93;;
43803;SDS011;29430;52.924;-2.388;2022-07-30T01:28:36;2.67;;;0.80;;
43803;SDS011;29430;52.924;-2.388;2022-07-30T01:33:31;1.70;;;0.70;;
43803;SDS011;29430;52.924;-2.388;2022-07-30T01:38:27;3.80;;;0.70;;
43803;SDS011;29430;52.924;-2.388;2022-07-30T01:43:25;3.85;;;0.70;;
43803;SDS011;29430;52.924;-2.388;2022-07-30T01:48:19;3.65;;;0.60;;
43803;SDS011;29430;52.924;-2.388;2022-07-30T01:53:17;5.70;;;0.60;;
43803;SDS011;29430;52.924;-2.388;2022-07-30T02:03:03;1.60;;;0.80;;
43803;SDS011;29430;52.924;-2.388;2022-07-30T02:08:01;2.88;;;0.65;;
43803;SDS011;29430;52.924;-2.388;2022-07-30T02:12:54;2.72;;;0.70;;
43803;SDS011;29430;52.924;-2.388;2022-07-30T02:17:59;2.25;;;0.70;;
43803;SDS011;29430;52.924;-2.388;2022-07-30T02:22:56;1.40;;;0.60;;
43803;SDS011;29430;52.924;-2.388;2022-07-30T02:27:53;1.30;;;0.47;;
43803;SDS011;29430;52.924;-2.388;2022-07-30T02:32:48;2.25;;;0.60;;
43803;SDS011;29430;52.924;-2.388;2022-07-30T02:37:41;3.22;;;0.50;;
43803;SDS011;29430;52.924;-2.388;2022-07-30T02:42:35;2.50;;;0.60;;
43803;SDS011;29430;52.924;-2.388;2022-07-30T02:47:28;2.03;;;0.63;;
43803;SDS011;29430;52.924;-2.388;2022-07-30T02:52:21;2.33;;;0.73;;
43803;SDS011;29430;52.924;-2.388;2022-07-30T02:57:16;7.05;;;0.90;;
43803;SDS011;29430;52.924;-2.388;2022-07-30T03:02:11;5.05;;;0.70;;
43803;SDS011;29430;52.924;-2.388;2022-07-30T03:07:05;3.15;;;0.70;;
43803;SDS011;29430;52.924;-2.388;2022-07-30T03:11:59;1.92;;;0.70;;
43803;SDS011;29430;52.924;-2.388;2022-07-30T03:16:54;2.83;;;0.70;;
43803;SDS011;29430;52.924;-2.388;2022-07-30T03:21:49;2.28;;;0.77;;
43803;SDS011;29430;52.924;-2.388;2022-07-30T03:26:45;2.90;;;0.70;;
43803;SDS011;29430;52.924;-2.388;2022-07-30T03:31:37;2.83;;;0.70;;
43803;SDS011;29430;52.924;-2.388;2022-07-30T03:36:31;2.38;;;0.60;;
43803;SDS011;29430;52.924;-2.388;2022-07-30T03:41:24;1.75;;;0.70;;
43803;SDS011;29430;52.924;-2.388;2022-07-30T03:46:17;1.70;;;0.70;;
43803;SDS011;29430;52.924;-2.388;2022-07-30T03:51:09;3.30;;;0.60;;
43803;SDS011;29430;52.924;-2.388;2022-07-30T03:56:01;2.00;;;0.50;;
43803;SDS011;29430;52.924;-2.388;2022-07-30T04:00:53;6.45;;;0.40;;
43803;SDS011;29430;52.924;-2.388;2022-07-30T04:05:45;1.65;;;0.40;;
43803;SDS011;29430;52.924;-2.388;2022-07-30T04:10:37;0.98;;;0.32;;
43803;SDS011;29430;52.924;-2.388;2022-07-30T04:15:30;1.73;;;0.40;;
43803;SDS011;29430;52.924;-2.388;2022-07-30T04:20:48;1.73;;;0.40;;
43803;SDS011;29430;52.924;-2.388;2022-07-30T04:25:42;1.42;;;0.50;;
43803;SDS011;29430;52.924;-2.388;2022-07-30T04:30:35;2.20;;;0.43;;
43803;SDS011;29430;52.924;-2.388;2022-07-30T04:35:27;3.08;;;0.50;;
43803;SDS011;29430;52.924;-2.388;2022-07-30T04:40:40;2.75;;;0.45;;
43803;SDS011;29430;52.924;-2.388;2022-07-30T04:45:31;2.47;;;0.50;;
43803;SDS011;29430;52.924;-2.388;2022-07-30T04:50:24;1.83;;;0.50;;
43803;SDS011;29430;52.924;-2.388;2022-07-30T04:55:17;1.90;;;0.47;;
43803;SDS011;29430;52.924;-2.388;2022-07-30T05:00:11;1.23;;;0.40;;
43803;SDS011;29430;52.924;-2.388;2022-07-30T05:05:03;2.80;;;0.50;;
43803;SDS011;29430;52.924;-2.388;2022-07-30T05:09:55;2.35;;;0.60;;
43803;SDS011;29430;52.924;-2.388;2022-07-30T05:14:47;2.75;;;0.60;;
43803;SDS011;29430;52.924;-2.388;2022-07-30T05:19:39;1.10;;;0.50;;
43803;SDS011;29430;52.924;-2.388;2022-07-30T05:24:31;2.03;;;0.60;;
43803;SDS011;29430;52.924;-2.388;2022-07-30T05:29:22;4.32;;;0.60;;
43803;SDS011;29430;52.924;-2.388;2022-07-30T05:34:14;1.25;;;0.60;;
43803;SDS011;29430;52.924;-2.388;2022-07-30T05:39:06;3.42;;;0.70;;
43803;SDS011;29430;52.924;-2.388;2022-07-30T05:43:58;1.48;;;0.70;;
43803;SDS011;29430;52.924;-2.388;2022-07-30T05:48:50;2.05;;;0.50;;
43803;SDS011;29430;52.924;-2.388;2022-07-30T05:53:42;2.22;;;0.63;;
43803;SDS011;29430;52.924;-2.388;2022-07-30T05:58:34;2.10;;;0.77;;
43803;SDS011;29430;52.924;-2.388;2022-07-30T06:03:26;3.20;;;0.80;;
43803;SDS011;29430;52.924;-2.388;2022-07-30T06:08:18;2.72;;;1.00;;
43803;SDS011;29430;52.924;-2.388;2022-07-30T06:13:09;2.88;;;0.98;;
43803;SDS011;29430;52.924;-2.388;2022-07-30T06:18:01;4.78;;;0.73;;
43803;SDS011;29430;52.924;-2.388;2022-07-30T06:22:53;1.77;;;0.70;;
43803;SDS011;29430;52.924;-2.388;2022-07-30T06:27:44;2.20;;;0.60;;
43803;SDS011;29430;52.924;-2.388;2022-07-30T06:32:36;3.42;;;0.88;;
43803;SDS011;29430;52.924;-2.388;2022-07-30T06:37:28;1.73;;;0.70;;
43803;SDS011;29430;52.924;-2.388;2022-07-30T06:42:39;1.63;;;0.60;;
43803;SDS011;29430;52.924;-2.388;2022-07-30T06:47:31;3.85;;;0.77;;
43803;SDS011;29430;52.924;-2.388;2022-07-30T06:52:24;2.17;;;0.63;;
43803;SDS011;29430;52.924;-2.388;2022-07-30T06:57:16;4.05;;;0.80;;
43803;SDS011;29430;52.924;-2.388;2022-07-30T07:02:08;3.33;;;0.73;;
43803;SDS011;29430;52.924;-2.388;2022-07-30T07:07:00;2.75;;;0.63;;
43803;SDS011;29430;52.924;-2.388;2022-07-30T07:12:02;2.17;;;0.70;;
43803;SDS011;29430;52.924;-2.388;2022-07-30T07:16:54;1.92;;;0.52;;
43803;SDS011;29430;52.924;-2.388;2022-07-30T07:21:46;3.42;;;0.63;;
43803;SDS011;29430;52.924;-2.388;2022-07-30T07:26:38;1.60;;;0.50;;
43803;SDS011;29430;52.924;-2.388;2022-07-30T07:31:30;2.63;;;0.52;;
43803;SDS011;29430;52.924;-2.388;2022-07-30T07:36:41;1.40;;;0.70;;
43803;SDS011;29430;52.924;-2.388;2022-07-30T07:41:33;1.77;;;0.57;;
43803;SDS011;29430;52.924;-2.388;2022-07-30T07:46:39;1.27;;;0.50;;
43803;SDS011;29430;52.924;-2.388;2022-07-30T07:51:31;2.28;;;0.45;;
43803;SDS011;29430;52.924;-2.388;2022-07-30T07:56:38;4.07;;;0.55;;
43803;SDS011;29430;52.924;-2.388;2022-07-30T08:01:31;1.13;;;0.50;;
43803;SDS011;29430;52.924;-2.388;2022-07-30T08:06:22;1.10;;;0.50;;
43803;SDS011;29430;52.924;-2.388;2022-07-30T08:11:14;1.38;;;0.65;;
43803;SDS011;29430;52.924;-2.388;2022-07-30T08:16:06;1.92;;;0.40;;
43803;SDS011;29430;52.924;-2.388;2022-07-30T08:21:02;1.47;;;0.27;;
43803;SDS011;29430;52.924;-2.388;2022-07-30T08:25:55;1.10;;;0.32;;
43803;SDS011;29430;52.924;-2.388;2022-07-30T08:30:48;2.03;;;0.40;;
43803;SDS011;29430;52.924;-2.388;2022-07-30T08:35:40;1.10;;;0.30;;
43803;SDS011;29430;52.924;-2.388;2022-07-30T08:40:55;1.00;;;0.38;;
43803;SDS011;29430;52.924;-2.388;2022-07-30T08:45:47;1.15;;;0.38;;
43803;SDS011;29430;52.924;-2.388;2022-07-30T08:50:45;1.77;;;0.38;;
43803;SDS011;29430;52.924;-2.388;2022-07-30T08:55:38;2.65;;;0.40;;
43803;SDS011;29430;52.924;-2.388;2022-07-30T09:00:31;1.60;;;0.30;;
43803;SDS011;29430;52.924;-2.388;2022-07-30T09:05:22;1.20;;;0.30;;
43803;SDS011;29430;52.924;-2.388;2022-07-30T09:10:14;1.85;;;0.30;;
43803;SDS011;29430;52.924;-2.388;2022-07-30T09:15:11;0.88;;;0.20;;
43803;SDS011;29430;52.924;-2.388;2022-07-30T09:20:07;0.65;;;0.22;;
43803;SDS011;29430;52.924;-2.388;2022-07-30T09:25:00;0.73;;;0.30;;
43803;SDS011;29430;52.924;-2.388;2022-07-30T09:29:57;0.30;;;0.10;;
43803;SDS011;29430;52.924;-2.388;2022-07-30T09:34:50;0.50;;;0.10;;
43803;SDS011;29430;52.924;-2.388;2022-07-30T09:39:41;0.52;;;0.10;;
43803;SDS011;29430;52.924;-2.388;2022-07-30T09:44:50;0.25;;;0.10;;
43803;SDS011;29430;52.924;-2.388;2022-07-30T09:49:42;0.40;;;0.00;;
43803;SDS011;29430;52.924;-2.388;2022-07-30T09:54:47;0.10;;;0.10;;
43803;SDS011;29430;52.924;-2.388;2022-07-30T09:59:42;0.08;;;0.00;;
43803;SDS011;29430;52.924;-2.388;2022-07-30T10:04:34;1.35;;;0.00;;
43803;SDS011;29430;52.924;-2.388;2022-07-30T10:09:31;0.10;;;0.00;;
43803;SDS011;29430;52.924;-2.388;2022-07-30T10:14:34;0.00;;;0.00;;
43803;SDS011;29430;52.924;-2.388;2022-07-30T10:19:33;0.10;;;0.10;;
43803;SDS011;29430;52.924;-2.388;2022-07-30T10:24:30;0.45;;;0.10;;
43803;SDS011;29430;52.924;-2.388;2022-07-30T10:29:26;0.68;;;0.00;;
43803;SDS011;29430;52.924;-2.388;2022-07-30T10:34:24;0.10;;;0.00;;
43803;SDS011;29430;52.924;-2.388;2022-07-30T10:39:19;0.10;;;0.10;;
43803;SDS011;29430;52.924;-2.388;2022-07-30T10:49:18;0.75;;;0.03;;
43803;SDS011;29430;52.924;-2.388;2022-07-30T10:59:29;0.17;;;0.10;;
43803;SDS011;29430;52.924;-2.388;2022-07-30T11:04:54;0.20;;;0.10;;
43803;SDS011;29430;52.924;-2.388;2022-07-30T11:10:34;0.30;;;0.10;;
43803;SDS011;29430;52.924;-2.388;2022-07-30T11:26:05;1.85;;;0.17;;
43803;SDS011;29430;52.924;-2.388;2022-07-30T11:31:24;0.35;;;0.20;;
43803;SDS011;29430;52.924;-2.388;2022-07-30T11:47:26;0.55;;;0.20;;
43803;SDS011;29430;52.924;-2.388;2022-07-30T11:52:24;0.68;;;0.20;;
43803;SDS011;29430;52.924;-2.388;2022-07-30T11:57:15;0.45;;;0.20;;
43803;SDS011;29430;52.924;-2.388;2022-07-30T12:02:07;0.82;;;0.15;;
43803;SDS011;29430;52.924;-2.388;2022-07-30T12:06:59;0.30;;;0.20;;
43803;SDS011;29430;52.924;-2.388;2022-07-30T12:11:51;0.70;;;0.20;;
43803;SDS011;29430;52.924;-2.388;2022-07-30T12:16:50;0.50;;;0.25;;
43803;SDS011;29430;52.924;-2.388;2022-07-30T12:21:43;1.90;;;0.30;;
43803;SDS011;29430;52.924;-2.388;2022-07-30T12:26:39;1.33;;;0.30;;
43803;SDS011;29430;52.924;-2.388;2022-07-30T12:31:31;2.20;;;0.30;;
43803;SDS011;29430;52.924;-2.388;2022-07-30T12:36:31;0.75;;;0.30;;
43803;SDS011;29430;52.924;-2.388;2022-07-30T12:41:46;1.02;;;0.38;;
43803;SDS011;29430;52.924;-2.388;2022-07-30T12:46:38;0.98;;;0.32;;
43803;SDS011;29430;52.924;-2.388;2022-07-30T12:51:32;1.92;;;0.40;;
43803;SDS011;29430;52.924;-2.388;2022-07-30T12:56:30;0.75;;;0.30;;
43803;SDS011;29430;52.924;-2.388;2022-07-30T13:01:55;1.00;;;0.40;;
43803;SDS011;29430;52.924;-2.388;2022-07-30T13:06:42;1.33;;;0.30;;
43803;SDS011;29430;52.924;-2.388;2022-07-30T13:11:41;1.00;;;0.50;;
43803;SDS011;29430;52.924;-2.388;2022-07-30T13:16:39;0.75;;;0.32;;
43803;SDS011;29430;52.924;-2.388;2022-07-30T13:21:32;1.83;;;0.68;;
43803;SDS011;29430;52.924;-2.388;2022-07-30T13:26:24;2.53;;;0.63;;
43803;SDS011;29430;52.924;-2.388;2022-07-30T13:31:17;3.35;;;0.50;;
43803;SDS011;29430;52.924;-2.388;2022-07-30T13:36:09;1.00;;;0.40;;
43803;SDS011;29430;52.924;-2.388;2022-07-30T13:41:03;1.30;;;0.57;;
43803;SDS011;29430;52.924;-2.388;2022-07-30T13:45:55;2.97;;;0.60;;
43803;SDS011;29430;52.924;-2.388;2022-07-30T13:50:50;2.28;;;0.60;;
43803;SDS011;29430;52.924;-2.388;2022-07-30T13:55:42;2.15;;;0.60;;
43803;SDS011;29430;52.924;-2.388;2022-07-30T14:00:35;2.08;;;0.50;;
43803;SDS011;29430;52.924;-2.388;2022-07-30T14:05:28;3.03;;;0.60;;
43803;SDS011;29430;52.924;-2.388;2022-07-30T14:10:21;4.68;;;0.50;;
43803;SDS011;29430;52.924;-2.388;2022-07-30T14:15:13;1.38;;;0.40;;
43803;SDS011;29430;52.924;-2.388;2022-07-30T14:20:08;2.28;;;0.60;;
43803;SDS011;29430;52.924;-2.388;2022-07-30T14:25:00;0.93;;;0.40;;
43803;SDS011;29430;52.924;-2.388;2022-07-30T14:29:52;2.85;;;0.50;;
43803;SDS011;29430;52.924;-2.388;2022-07-30T14:34:44;1.73;;;0.50;;
43803;SDS011;29430;52.924;-2.388;2022-07-30T14:39:39;1.13;;;0.50;;
43803;SDS011;29430;52.924;-2.388;2022-07-30T14:44:31;0.88;;;0.40;;
43803;SDS011;29430;52.924;-2.388;2022-07-30T14:49:23;1.67;;;0.40;;
43803;SDS011;29430;52.924;-2.388;2022-07-30T14:54:15;2.25;;;0.52;;
43803;SDS011;29430;52.924;-2.388;2022-07-30T14:59:07;1.15;;;0.43;;
43803;SDS011;29430;52.924;-2.388;2022-07-30T15:03:59;1.73;;;0.50;;
43803;SDS011;29430;52.924;-2.388;2022-07-30T15:08:51;1.95;;;0.50;;
43803;SDS011;29430;52.924;-2.388;2022-07-30T15:13:43;1.35;;;0.60;;
43803;SDS011;29430;52.924;-2.388;2022-07-30T15:18:40;2.03;;;0.57;;
43803;SDS011;29430;52.924;-2.388;2022-07-30T15:23:32;10.93;;;1.17;;
43803;SDS011;29430;52.924;-2.388;2022-07-30T15:28:24;2.90;;;0.80;;
43803;SDS011;29430;52.924;-2.388;2022-07-30T15:33:16;1.23;;;0.70;;
43803;SDS011;29430;52.924;-2.388;2022-07-30T15:38:07;1.58;;;0.70;;
43803;SDS011;29430;52.924;-2.388;2022-07-30T15:42:59;1.70;;;0.60;;
43803;SDS011;29430;52.924;-2.388;2022-07-30T15:47:51;2.47;;;0.70;;
43803;SDS011;29430;52.924;-2.388;2022-07-30T15:52:42;3.28;;;0.93;;
43803;SDS011;29430;52.924;-2.388;2022-07-30T15:57:34;1.67;;;0.70;;
43803;SDS011;29430;52.924;-2.388;2022-07-30T16:02:26;2.45;;;0.70;;
43803;SDS011;29430;52.924;-2.388;2022-07-30T16:07:18;2.05;;;0.80;;
43803;SDS011;29430;52.924;-2.388;2022-07-30T16:12:10;1.13;;;0.52;;
43803;SDS011;29430;52.924;-2.388;2022-07-30T16:17:02;3.63;;;0.70;;
43803;SDS011;29430;52.924;-2.388;2022-07-30T16:21:53;1.58;;;0.63;;
43803;SDS011;29430;52.924;-2.388;2022-07-30T16:26:45;3.05;;;0.63;;
43803;SDS011;29430;52.924;-2.388;2022-07-30T16:31:37;3.20;;;0.73;;
43803;SDS011;29430;52.924;-2.388;2022-07-30T16:36:29;1.33;;;0.60;;
43803;SDS011;29430;52.924;-2.388;2022-07-30T16:41:21;1.65;;;0.75;;
43803;SDS011;29430;52.924;-2.388;2022-07-30T16:46:13;2.88;;;0.80;;
43803;SDS011;29430;52.924;-2.388;2022-07-30T16:51:09;3.15;;;0.73;;
43803;SDS011;29430;52.924;-2.388;2022-07-30T16:56:02;2.00;;;0.80;;
43803;SDS011;29430;52.924;-2.388;2022-07-30T17:00:54;3.17;;;0.88;;
43803;SDS011;29430;52.924;-2.388;2022-07-30T17:05:46;2.67;;;0.70;;
43803;SDS011;29430;52.924;-2.388;2022-07-30T17:10:38;3.10;;;0.70;;
43803;SDS011;29430;52.924;-2.388;2022-07-30T17:15:31;2.15;;;0.68;;
43803;SDS011;29430;52.924;-2.388;2022-07-30T17:20:23;2.38;;;0.82;;
43803;SDS011;29430;52.924;-2.388;2022-07-30T17:25:15;3.65;;;1.00;;
43803;SDS011;29430;52.924;-2.388;2022-07-30T17:30:07;4.82;;;1.10;;
43803;SDS011;29430;52.924;-2.388;2022-07-30T17:34:59;3.20;;;0.80;;
43803;SDS011;29430;52.924;-2.388;2022-07-30T17:39:50;3.60;;;1.00;;
43803;SDS011;29430;52.924;-2.388;2022-07-30T17:45:03;3.13;;;1.45;;
43803;SDS011;29430;52.924;-2.388;2022-07-30T17:49:55;3.35;;;1.25;;
43803;SDS011;29430;52.924;-2.388;2022-07-30T17:54:47;3.60;;;1.50;;
43803;SDS011;29430;52.924;-2.388;2022-07-30T17:59:40;3.50;;;1.10;;
43803;SDS011;29430;52.924;-2.388;2022-07-30T18:04:32;7.03;;;1.30;;
43803;SDS011;29430;52.924;-2.388;2022-07-30T18:09:25;3.83;;;1.30;;
43803;SDS011;29430;52.924;-2.388;2022-07-30T18:14:17;3.10;;;1.02;;
43803;SDS011;29430;52.924;-2.388;2022-07-30T18:19:09;2.10;;;1.00;;
43803;SDS011;29430;52.924;-2.388;2022-07-30T18:24:17;3.90;;;1.38;;
43803;SDS011;29430;52.924;-2.388;2022-07-30T18:29:14;2.47;;;1.20;;
43803;SDS011;29430;52.924;-2.388;2022-07-30T18:34:07;2.22;;;0.88;;
43803;SDS011;29430;52.924;-2.388;2022-07-30T18:38:58;3.70;;;1.05;;
43803;SDS011;29430;52.924;-2.388;2022-07-30T18:43:50;3.63;;;1.20;;
43803;SDS011;29430;52.924;-2.388;2022-07-30T18:48:42;1.80;;;1.10;;
43803;SDS011;29430;52.924;-2.388;2022-07-30T18:53:34;3.17;;;1.00;;
43803;SDS011;29430;52.924;-2.388;2022-07-30T18:58:26;1.73;;;0.70;;
43803;SDS011;29430;52.924;-2.388;2022-07-30T19:03:17;2.95;;;0.60;;
43803;SDS011;29430;52.924;-2.388;2022-07-30T19:08:13;0.98;;;0.50;;
43803;SDS011;29430;52.924;-2.388;2022-07-30T19:13:05;1.60;;;0.60;;
43803;SDS011;29430;52.924;-2.388;2022-07-30T19:17:57;2.17;;;0.65;;
43803;SDS011;29430;52.924;-2.388;2022-07-30T19:22:49;2.47;;;0.60;;
43803;SDS011;29430;52.924;-2.388;2022-07-30T19:27:41;1.00;;;0.50;;
43803;SDS011;29430;52.924;-2.388;2022-07-30T19:32:35;1.85;;;0.60;;
43803;SDS011;29430;52.924;-2.388;2022-07-30T19:37:27;1.30;;;0.50;;
43803;SDS011;29430;52.924;-2.388;2022-07-30T19:42:19;2.47;;;0.60;;
43803;SDS011;29430;52.924;-2.388;2022-07-30T19:47:11;1.30;;;0.50;;
43803;SDS011;29430;52.924;-2.388;2022-07-30T19:52:06;2.13;;;0.60;;
43803;SDS011;29430;52.924;-2.388;2022-07-30T19:57:15;1.27;;;0.60;;
43803;SDS011;29430;52.924;-2.388;2022-07-30T20:02:10;2.80;;;0.70;;
43803;SDS011;29430;52.924;-2.388;2022-07-30T20:07:03;2.03;;;0.70;;
43803;SDS011;29430;52.924;-2.388;2022-07-30T20:11:55;1.80;;;0.60;;
43803;SDS011;29430;52.924;-2.388;2022-07-30T20:16:48;1.30;;;0.60;;
43803;SDS011;29430;52.924;-2.388;2022-07-30T20:21:41;1.45;;;0.60;;
43803;SDS011;29430;52.924;-2.388;2022-07-30T20:26:53;1.75;;;0.70;;
43803;SDS011;29430;52.924;-2.388;2022-07-30T20:31:45;3.97;;;0.60;;
43803;SDS011;29430;52.924;-2.388;2022-07-30T20:36:40;1.42;;;0.50;;
43803;SDS011;29430;52.924;-2.388;2022-07-30T20:41:32;1.15;;;0.50;;
43803;SDS011;29430;52.924;-2.388;2022-07-30T20:46:25;2.13;;;0.50;;
43803;SDS011;29430;52.924;-2.388;2022-07-30T20:51:16;1.00;;;0.43;;
43803;SDS011;29430;52.924;-2.388;2022-07-30T20:56:08;1.25;;;0.60;;
43803;SDS011;29430;52.924;-2.388;2022-07-30T21:01:00;0.95;;;0.50;;
43803;SDS011;29430;52.924;-2.388;2022-07-30T21:05:55;1.05;;;0.47;;
43803;SDS011;29430;52.924;-2.388;2022-07-30T21:10:46;0.90;;;0.40;;
43803;SDS011;29430;52.924;-2.388;2022-07-30T21:15:39;0.70;;;0.32;;
43803;SDS011;29430;52.924;-2.388;2022-07-30T21:20:51;1.35;;;0.60;;
43803;SDS011;29430;52.924;-2.388;2022-07-30T21:25:42;2.85;;;0.57;;
43803;SDS011;29430;52.924;-2.388;2022-07-30T21:30:54;1.45;;;0.50;;
43803;SDS011;29430;52.924;-2.388;2022-07-30T21:35:47;4.00;;;1.10;;
43803;SDS011;29430;52.924;-2.388;2022-07-30T21:40:39;2.42;;;0.57;;
43803;SDS011;29430;52.924;-2.388;2022-07-30T21:45:31;1.52;;;0.50;;
43803;SDS011;29430;52.924;-2.388;2022-07-30T21:50:29;1.42;;;0.47;;
43803;SDS011;29430;52.924;-2.388;2022-07-30T21:55:20;1.73;;;0.50;;
43803;SDS011;29430;52.924;-2.388;2022-07-30T22:00:14;1.00;;;0.60;;
43803;SDS011;29430;52.924;-2.388;2022-07-30T22:05:12;2.00;;;0.52;;
43803;SDS011;29430;52.924;-2.388;2022-07-30T22:10:05;0.95;;;0.40;;
43803;SDS011;29430;52.924;-2.388;2022-07-30T22:15:00;1.70;;;0.60;;
43803;SDS011;29430;52.924;-2.388;2022-07-30T22:19:53;1.98;;;0.55;;
43803;SDS011;29430;52.924;-2.388;2022-07-30T22:24:44;2.60;;;0.77;;
43803;SDS011;29430;52.924;-2.388;2022-07-30T22:29:37;1.33;;;0.55;;
43803;SDS011;29430;52.924;-2.388;2022-07-30T22:34:32;3.28;;;0.77;;
43803;SDS011;29430;52.924;-2.388;2022-07-30T22:39:24;1.42;;;0.60;;
43803;SDS011;29430;52.924;-2.388;2022-07-30T22:44:22;1.30;;;0.60;;
43803;SDS011;29430;52.924;-2.388;2022-07-30T22:49:14;2.85;;;0.75;;
43803;SDS011;29430;52.924;-2.388;2022-07-30T22:54:26;2.72;;;0.57;;
43803;SDS011;29430;52.924;-2.388;2022-07-30T22:59:17;1.23;;;0.50;;
43803;SDS011;29430;52.924;-2.388;2022-07-30T23:04:29;1.92;;;0.50;;
43803;SDS011;29430;52.924;-2.388;2022-07-30T23:09:23;1.80;;;0.50;;
43803;SDS011;29430;52.924;-2.388;2022-07-30T23:14:16;2.88;;;0.50;;
43803;SDS011;29430;52.924;-2.388;2022-07-30T23:19:08;3.13;;;0.50;;
43803;SDS011;29430;52.924;-2.388;2022-07-30T23:24:07;1.45;;;0.40;;
43803;SDS011;29430;52.924;-2.388;2022-07-30T23:29:00;1.80;;;0.50;;
43803;SDS011;29430;52.924;-2.388;2022-07-30T23:33:52;1.30;;;0.40;;
43803;SDS011;29430;52.924;-2.388;2022-07-30T23:38:44;1.88;;;0.50;;
43803;SDS011;29430;52.924;-2.388;2022-07-30T23:43:36;0.90;;;0.43;;
43803;SDS011;29430;52.924;-2.388;2022-07-30T23:48:28;1.52;;;0.50;;
43803;SDS011;29430;52.924;-2.388;2022-07-30T23:53:21;1.17;;;0.30;;
43803;SDS011;29430;52.924;-2.388;2022-07-30T23:58:13;0.98;;;0.40;;
